• Join FlightAware (Why Join?)
  • Login
  • US Flag 
01:48PM EDT


 

Airport Tracker/Info


-or-


 

Live Flight TrackerFlight Track Log ✈ SWA1046 ✈ 28-Apr-2013 ✈ KALB - KMCO

Flight Track Log - Related Links

Times and Time Zones

All times are in EDT time to prevent confusion due to time zone crossing. See the SWA1046 flight status page for this flight to view local times or setup timezone preferences in your user account.

Time Position Orientation Groundspeed Altitude Reporting Facility
EDT Latitude Longitude Course Direction KTS MPH feet Rate Location/Type
08:02AM 42.7672 -73.8061 350° North 159 183 1,300  Level Boston Center
08:02AM 42.7944 -73.8125 350° North 181 208 2,300 2,880 Climbing Boston Center
08:03AM 42.8192 -73.8383 323° Northwest 211 243 4,200 3,900 Climbing Boston Center
08:04AM 42.8558 -73.9044 307° West 230 265 8,200 3,600 Climbing Boston Center
08:05AM 42.8589 -73.9894 273° West 224 258 11,400 3,180 Climbing Boston Center
08:06AM 42.8142 -74.0533 226° Southwest 209 241 14,600 2,400 Climbing Boston Center
08:07AM 42.7292 -74.0228 165° South 220 253 16,200 1,800 Climbing Boston Center
08:08AM 42.6275 -73.9808 163° South 298 343 18,200 2,340 Climbing Boston Center
08:09AM 42.5197 -73.9358 163° South 352 405 20,900 2,640 Climbing Boston Center
08:10AM 42.4119 -73.8856 161° South 386 444 23,500 2,280 Climbing Boston Center
08:11AM 42.2917 -73.8547 169° South 420 483 25,500 1,920 Climbing Boston Center
08:12AM 42.1686 -73.8492 178° South 440 506 27,400 1,800 Climbing Boston Center
08:13AM 42.0436 -73.8436 178° South 451 519 29,200 1,680 Climbing Boston Center
08:14AM 41.9122 -73.8489 182° South 462 532 30,800 1,740 Climbing Boston Center
08:15AM 41.7928 -73.9075 200° South 450 518 32,700 1,620 Climbing Boston Center
08:17AM 41.5331 -74.0356 200° South 456 525 36,100 1,320 Climbing New York Center
08:18AM 41.4106 -74.0989 201° Southwest 456 525 37,100 900 Climbing New York Center
08:19AM 41.2922 -74.1592 201° Southwest 461 531 38,000 420 Climbing New York Center
08:20AM 41.1675 -74.2164 199° South 455 524 38,000  Level New York Center
08:21AM 41.0514 -74.2736 200° South 460 529 38,000  Level New York Center
08:22AM 40.9350 -74.3281 199° South 455 524 38,000  Level New York Center
08:23AM 40.8167 -74.3878 201° Southwest 450 518 38,000  Level New York Center
08:24AM 40.7003 -74.4444 200° South 456 525 38,000  Level New York Center
08:26AM 40.4486 -74.5667 200° South 443 510 38,000  Level Washington Center
08:27AM 40.3450 -74.6172 200° South 451 519 38,000  Level Washington Center
08:28AM 40.2267 -74.6731 200° South 451 519 38,000  Level Washington Center
08:29AM 40.1083 -74.7317 201° Southwest 456 525 38,000  Level Washington Center
08:30AM 39.9900 -74.7844 199° South 456 525 38,000  Level Washington Center
08:31AM 39.8569 -74.8508 201° Southwest 462 532 38,000  Level Washington Center
08:32AM 39.7511 -74.9033 201° Southwest 462 532 38,000  Level Washington Center
08:33AM 39.6306 -74.9583 199° South 462 532 38,000  Level Washington Center
08:34AM 39.5122 -75.0133 200° South 462 532 38,000  Level Washington Center
08:35AM 39.3936 -75.0678 200° South 462 532 38,000  Level Washington Center
08:36AM 39.2750 -75.1225 200° South 462 532 38,000  Level Washington Center
08:37AM 39.1586 -75.1819 202° Southwest 457 526 38,000  Level Washington Center
08:38AM 39.0461 -75.2469 204° Southwest 452 520 38,000  Level Washington Center
08:39AM 38.9339 -75.3142 205° Southwest 452 520 38,000  Level Washington Center
08:40AM 38.8192 -75.3864 206° Southwest 452 520 38,000  Level Washington Center
08:41AM 38.7047 -75.4508 204° Southwest 452 520 38,000  Level Washington Center
08:42AM 38.5922 -75.5147 204° Southwest 452 520 38,000  Level Washington Center
08:43AM 38.4817 -75.5892 208° Southwest 452 520 38,000  Level Washington Center
08:44AM 38.3669 -75.6472 202° Southwest 447 514 38,000  Level Washington Center
08:45AM 38.2419 -75.7161 203° Southwest 447 514 38,000  Level Washington Center
08:46AM 38.1314 -75.7844 206° Southwest 447 514 38,000  Level Washington Center
08:47AM 38.0144 -75.8475 203° Southwest 447 514 38,000  Level Washington Center
08:48AM 37.9036 -75.9156 206° Southwest 447 514 38,000  Level Washington Center
08:49AM 37.7908 -75.9808 205° Southwest 447 514 38,000  Level Washington Center
08:50AM 37.6822 -76.0511 207° Southwest 447 514 38,000  Level Washington Center
08:51AM 37.5714 -76.1133 204° Southwest 447 514 38,000  Level Washington Center
08:52AM 37.4586 -76.1700 202° Southwest 442 509 38,000  Level Washington Center
08:53AM 37.3456 -76.2344 204° Southwest 442 509 38,000  Level Washington Center
08:54AM 37.2347 -76.2989 205° Southwest 442 509 38,000  Level Washington Center
08:55AM 37.1217 -76.3628 204° Southwest 442 509 38,000  Level Washington Center
08:56AM 37.0106 -76.4269 205° Southwest 442 509 38,000  Level Washington Center
08:57AM 36.8975 -76.4878 203° Southwest 442 509 38,000  Level Washington Center
08:58AM 36.7864 -76.5542 206° Southwest 442 509 38,000  Level Washington Center
08:59AM 36.6878 -76.6125 205° Southwest 442 509 38,000  Level Washington Center
09:00AM 36.5747 -76.6731 203° Southwest 442 509 38,000  Level Washington Center
09:01AM 36.4656 -76.7336 204° Southwest 442 509 38,000  Level Washington Center
09:02AM 36.3567 -76.7939 204° Southwest 442 509 38,000  Level Washington Center
09:03AM 36.2453 -76.8539 203° Southwest 442 509 38,000  Level Washington Center
09:04AM 36.1319 -76.9164 204° Southwest 442 509 38,000  Level Washington Center
09:05AM 36.0208 -76.9789 204° Southwest 442 509 38,000  Level Washington Center
09:06AM 35.9094 -77.0408 204° Southwest 442 509 38,000  Level Washington Center
09:07AM 35.7961 -77.1028 204° Southwest 447 514 38,000  Level Washington Center
09:08AM 35.6867 -77.1597 203° Southwest 438 504 38,000  Level Washington Center
09:09AM 35.5753 -77.2189 203° Southwest 432 497 38,000  Level Washington Center
09:10AM 35.4539 -77.2622 196° South 448 516 38,000  Level Washington Center
09:11AM 35.3342 -77.3056 196° South 448 516 38,000  Level Washington Center
09:12AM 35.2147 -77.3489 197° South 448 516 38,000 -120 Level Washington Center
09:13AM 35.0972 -77.3919 197° South 448 516 37,800 -600 Descending Washington Center
09:14AM 34.9819 -77.4325 196° South 442 509 36,800 -960 Descending Washington Center
09:15AM 34.8664 -77.4728 196° South 442 509 36,000 -420 Descending Washington Center
09:16AM 34.7531 -77.5208 199° South 442 509 36,000  Level Washington Center
09:17AM 34.6375 -77.5611 196° South 442 509 36,000  Level Washington Center
09:18AM 34.5200 -77.6036 197° South 442 509 36,000  Level Washington Center
09:19AM 34.4025 -77.6433 196° South 442 509 36,000  Level Washington Center
09:20AM 34.2869 -77.6858 197° South 442 509 36,000  Level Washington Center
09:21AM 34.1694 -77.7256 196° South 442 509 36,000  Level Washington Center
09:22AM 34.0369 -77.7706 196° South 439 505 36,000  Level Jacksonville Center
09:23AM 33.9217 -77.8097 196° South 439 505 36,000  Level Jacksonville Center
09:24AM 33.8047 -77.8542 198° South 439 505 36,000  Level Jacksonville Center
09:25AM 33.6853 -77.8958 196° South 439 505 36,000  Level Jacksonville Center
09:26AM 33.5658 -77.9350 195° South 439 505 36,000  Level Jacksonville Center
09:27AM 33.4506 -77.9739 196° South 439 505 36,000  Level Jacksonville Center
09:28AM 33.3311 -78.0153 196° South 439 505 36,000  Level Jacksonville Center
09:29AM 33.2158 -78.0564 197° South 444 511 36,000  Level Jacksonville Center
09:30AM 33.0964 -78.1000 197° South 444 511 36,000  Level Jacksonville Center
09:31AM 32.9811 -78.1383 196° South 444 511 36,000  Level Jacksonville Center
09:32AM 32.8614 -78.1767 195° South 444 511 36,000  Level Jacksonville Center
09:33AM 32.7439 -78.2175 196° South 444 511 36,000  Level Jacksonville Center
09:34AM 32.6306 -78.2553 196° South 438 504 36,000  Level Jacksonville Center
09:35AM 32.5131 -78.2933 195° South 438 504 36,000  Level Jacksonville Center
09:36AM 32.3997 -78.3361 198° South 432 497 36,000  Level Jacksonville Center
09:37AM 32.2844 -78.3811 198° South 432 497 36,000  Level Jacksonville Center
09:38AM 32.1647 -78.4214 196° South 432 497 36,000  Level Jacksonville Center
09:39AM 32.0514 -78.4586 196° South 432 497 36,000  Level Jacksonville Center
09:40AM 31.9317 -78.5011 197° South 437 503 36,000  Level Jacksonville Center
09:41AM 31.8142 -78.5386 195° South 437 503 36,000  Level Jacksonville Center
09:42AM 31.6983 -78.5758 195° South 432 497 36,000  Level Jacksonville Center
09:44AM 31.5744 -78.6197 196° South  Level FlightAware Approximate
09:44AM 31.4611 -78.6597 196° South 438 504 36,000  Level Jacksonville Center
09:45AM 31.3458 -78.7039 198° South 438 504 35,000 -1,020 Descending Jacksonville Center
09:46AM 31.2283 -78.7528 200° South 444 511 34,000 -1,020 Descending Jacksonville Center
09:47AM 31.1108 -78.7994 199° South 444 511 33,000 -1,020 Descending Jacksonville Center
09:48AM 30.9933 -78.8433 198° South 439 505 32,000 -300 Descending Jacksonville Center
09:51AM 30.7319 -78.9469 199° South 416 479 32,000  Level Miami Center
09:52AM 30.6186 -78.9906 198° South 429 494 32,000  Level Miami Center
09:53AM 30.5075 -79.0339 199° South 429 494 32,000  Level Miami Center
09:54AM 30.3944 -79.0822 200° South 429 494 32,000  Level Miami Center
09:55AM 30.2911 -79.1519 210° Southwest 424 488 32,000  Level Miami Center
09:56AM 30.1961 -79.2244 213° Southwest 431 496 32,000  Level Miami Center
09:57AM 30.0928 -79.2939 210° Southwest 426 490 32,000  Level Miami Center
09:58AM 29.9978 -79.3661 213° Southwest 426 490 32,000  Level Miami Center
09:59AM 29.8983 -79.4381 212° Southwest 425 489 32,000  Level Miami Center
10:00AM 29.7822 -79.5164 210° Southwest 427 491 32,000 -480 Level Miami Center
10:01AM 29.6892 -79.5906 215° Southwest 435 501 31,100 -960 Descending Miami Center
10:02AM 29.5897 -79.6572 210° Southwest 429 494 30,100 -1,020 Descending Miami Center
10:03AM 29.4925 -79.7286 213° Southwest 423 487 29,100 -1,020 Descending Miami Center
10:04AM 29.4014 -79.7978 213° Southwest 413 475 28,100 -1,080 Descending Miami Center
10:05AM 29.3042 -79.8594 209° Southwest 413 475 27,000 -1,320 Descending Miami Center
10:06AM 29.2153 -79.9236 212° Southwest 402 463 25,500 -1,740 Descending Miami Center
10:07AM 29.1264 -79.9853 211° Southwest 390 449 23,600 -1,860 Descending Miami Center
10:08AM 29.0414 -80.0444 211° Southwest 379 436 21,800 -1,800 Descending Miami Center
10:09AM 28.9589 -80.1014 211° Southwest 372 428 20,000 -1,800 Descending Miami Center
10:10AM 28.9069 -80.1853 235° Southwest 333 383 18,200 -1,800 Descending Miami Center
10:12AM 28.8500 -80.3500 248° West 326 375 15,100 -1,560 Descending Orlando TRACON
10:13AM 28.8333 -80.4500 259° West 317 365 14,000 -600 Descending Orlando TRACON
10:14AM 28.8167 -80.5500 259° West 311 358 14,000 -600 Level Orlando TRACON
10:15AM 28.8167 -80.6500 270° West 313 360 12,800 -1,560 Descending Orlando TRACON
10:16AM 28.8000 -80.7500 259° West 317 365 10,900 -1,440 Descending Orlando TRACON
10:17AM 28.7833 -80.8500 259° West 300 345 10,000 -1,200 Descending Orlando TRACON
10:18AM 28.7667 -80.9333 257° West 292 336 8,600 -1,320 Descending Orlando TRACON
10:19AM 28.7667 -81.0167 270° West 284 327 7,400 -1,080 Descending Orlando TRACON
10:20AM 28.7500 -81.1167 259° West 267 307 6,500 -900 Descending Orlando TRACON
10:21AM 28.7333 -81.1833 254° West 254 292 5,700 -1,260 Descending Orlando TRACON
10:22AM 28.6833 -81.2500 229° Southwest 256 295 4,000 -1,380 Descending Orlando TRACON
10:23AM 28.6333 -81.2833 210° Southwest 242 278 3,000 -780 Descending Orlando TRACON
10:24AM 28.5667 -81.2833 180° South 208 239 2,500 -600 Descending Orlando TRACON
10:25AM 28.5167 -81.2833 180° South 153 176 1,900 -780 Descending Orlando TRACON
10:26AM 28.4833 -81.3000 204° Southwest 133 153 1,000 -900 Descending Orlando TRACON